Kezdőlap
METAR-TAF:

METAR-TAF

Repülőterek :

Sanghaj-Putungi nemzetközi repülőtér

Sanghaj-Pudong, Kína

földrajzi szélesség: 31-07N, földrajzi hosszúság: 121-46E, magasság: 4 m

Jelenlegi meteorológiai megfigyelések

A jelentés 28 perccel ezelõtt készült, 20:30 UTC
Déli szél 10 kt
Hőmérséklet 29°C
Páratartalom 84%
Légköri nyomás 1006 hPa
Látótávolság 10 km, vagy több
felhőtlen 1500 m magasságban, és nincs gomolyfelhõ

METAR: ZSPD 202030Z 19005MPS CAVOK 29/26 Q1006 NOSIG

Idő: 04:58 (20:58 UTC)

Előrejelzés

A jelentés 5 órával és 55 perccel ezelõtt készült, 15:03 UTC
Az előrejelzés 20-én 18 óra UTC és 21-én 24 óra UTC között érvényes
Déli szél 8 kt
Látótávolság: 8000 m
Szórványos felhőzet 2000 lábon

TAF: ZSPD 201503Z 2018/2124 17004MPS 8000 SCT020 TX36/2106Z TN28/2021Z TN28/2121Z

Meteorológiai megfigyelések és előrejelzések több, mint 4000 repülőtéren (METAR és TAF jelentéseket).

A térképen piros és sárga pontok jelzik az elérhető meteorológiai állomásokat.

Mozgassa az egeret a pont fölött, hogy megjelenjen az állomás neve.

Azután kattintson az időjárási megfigyelések és előrejelzések megtekintéséhez.

A térkép megváltoztatása: kattintson a fekete keresztel jelölt zöld gombra ráközelítéshez, a vonallal jelölt zöld gombra távolításhoz, vagy a zöld nyilakra a szomszédos térképek eléréséhez.


METAR-TAF: